createdAt,value
2022-11-05T00:01:31.031Z,100075.81
2022-11-05T00:04:51.337Z,100081.03
2022-11-05T00:08:12.980Z,100077.03
2022-11-05T00:11:18.113Z,100086.75
2022-11-05T00:14:38.938Z,100086.59
2022-11-05T00:17:42.283Z,100081.78
2022-11-05T00:20:44.007Z,100092.16
2022-11-05T00:24:04.097Z,100087.28
2022-11-05T00:27:05.969Z,100092.63
2022-11-05T00:30:09.308Z,100099.28
2022-11-05T00:33:13.134Z,100103.94
2022-11-05T00:36:15.049Z,100113.63
2022-11-05T00:39:16.805Z,100110.31
2022-11-05T00:42:36.874Z,100117.22
2022-11-05T00:45:38.600Z,100122.13
2022-11-05T00:49:00.065Z,100129.56
2022-11-05T00:52:20.271Z,100121.56
2022-11-05T00:55:21.986Z,100135.41
2022-11-05T00:58:23.869Z,100140.31
2022-11-05T01:01:25.576Z,100140.75
2022-11-05T01:04:28.626Z,100141.50
2022-11-05T01:07:30.203Z,100146.94
2022-11-05T01:10:32.115Z,100142.19
2022-11-05T01:13:36.599Z,100136.94
2022-11-05T01:16:39.516Z,100148.66
2022-11-05T01:19:42.560Z,100145.16
2022-11-05T01:22:44.210Z,100138.41
2022-11-05T01:25:45.947Z,100142.41
2022-11-05T01:28:50.725Z,100143.78
2022-11-05T01:31:52.271Z,100142.69
2022-11-05T01:34:55.259Z,100149.84
2022-11-05T01:37:56.843Z,100153.69
2022-11-05T01:40:58.507Z,100157.22
2022-11-05T01:44:00.221Z,100151.56
2022-11-05T01:47:01.988Z,100163.56
2022-11-05T01:50:12.625Z,100163.50
2022-11-05T01:53:21.612Z,100162.00
2022-11-05T01:56:28.310Z,100163.59
2022-11-05T01:59:33.298Z,100175.19
2022-11-05T02:02:35.497Z,100174.53
2022-11-05T02:05:40.870Z,100180.25
2022-11-05T02:08:52.567Z,100192.88
2022-11-05T02:11:54.231Z,100192.88
2022-11-05T02:14:56.362Z,100191.19
2022-11-05T02:18:11.212Z,100192.88
2022-11-05T02:21:34.912Z,100190.25
2022-11-05T02:25:04.037Z,100189.19
2022-11-05T02:28:23.916Z,100190.13
2022-11-05T02:31:32.338Z,100193.81
2022-11-05T02:34:42.268Z,100196.28
2022-11-05T02:37:50.541Z,100196.63
2022-11-05T02:41:02.538Z,100199.53
2022-11-05T02:44:16.712Z,100200.72
2022-11-05T02:47:27.423Z,100213.41
2022-11-05T02:50:34.792Z,100208.59
2022-11-05T02:53:45.767Z,100217.72
2022-11-05T02:56:49.989Z,100212.94
2022-11-05T03:00:01.021Z,100216.34
2022-11-05T03:03:05.389Z,100218.66
2022-11-05T03:06:28.595Z,100226.19
2022-11-05T03:09:48.129Z,100227.47
2022-11-05T03:13:01.845Z,100233.78
2022-11-05T03:16:11.865Z,100239.78
2022-11-05T03:19:20.227Z,100230.06
2022-11-05T03:22:26.194Z,100239.16
2022-11-05T03:25:31.392Z,100242.41
2022-11-05T03:28:36.124Z,100244.53
2022-11-05T03:31:40.128Z,100245.34
2022-11-05T03:34:47.031Z,100250.41
2022-11-05T03:37:52.605Z,100255.16
2022-11-05T03:40:57.392Z,100257.34
2022-11-05T03:44:03.955Z,100258.88
2022-11-05T03:47:08.717Z,100264.88
2022-11-05T03:50:19.987Z,100269.34
2022-11-05T03:53:25.067Z,100274.28
2022-11-05T03:56:33.187Z,100277.38
2022-11-05T03:59:40.735Z,100276.13
2022-11-05T04:02:42.558Z,100284.91
2022-11-05T04:06:05.905Z,100276.75
2022-11-05T04:09:26.238Z,100287.84
2022-11-05T04:16:31.117Z,100291.25
2022-11-05T04:19:51.779Z,100291.84
2022-11-05T04:23:32.372Z,100295.88
2022-11-05T04:26:34.133Z,100299.25
2022-11-05T04:29:54.532Z,100302.63
2022-11-05T04:32:58.496Z,100304.47
2022-11-05T04:36:00.245Z,100312.19
2022-11-05T04:39:03.277Z,100306.63
2022-11-05T04:42:05.545Z,100311.13
2022-11-05T04:45:07.642Z,100313.44
2022-11-05T04:48:09.675Z,100315.72
2022-11-05T04:51:11.329Z,100320.19
2022-11-05T04:54:14.327Z,100316.34
2022-11-05T04:57:15.894Z,100312.47
2022-11-05T05:00:18.594Z,100315.91
2022-11-05T05:03:20.263Z,100325.13
2022-11-05T05:06:22.539Z,100325.31
2022-11-05T05:09:25.540Z,100322.38
2022-11-05T05:12:27.212Z,100327.16
2022-11-05T05:15:28.829Z,100323.13
2022-11-05T05:18:30.384Z,100340.41
2022-11-05T05:21:41.721Z,100327.31
2022-11-05T05:24:49.911Z,100337.47
2022-11-05T05:27:56.678Z,100332.09
2022-11-05T05:30:59.692Z,100337.00
2022-11-05T05:34:01.333Z,100349.97
2022-11-05T05:37:02.990Z,100343.66
2022-11-05T05:40:07.440Z,100356.44
2022-11-05T05:43:09.374Z,100356.16
2022-11-05T05:46:14.135Z,100357.53
2022-11-05T05:49:15.852Z,100355.06
2022-11-05T05:52:17.613Z,100361.19
2022-11-05T05:55:20.655Z,100372.44
2022-11-05T05:58:22.617Z,100382.47
2022-11-05T06:01:24.341Z,100377.03
2022-11-05T06:04:26.054Z,100385.81
2022-11-05T06:07:30.743Z,100387.16
2022-11-05T06:10:37.773Z,100396.94
2022-11-05T06:13:39.519Z,100398.41
2022-11-05T06:16:41.204Z,100409.19
2022-11-05T06:19:42.823Z,100413.81
2022-11-05T06:22:44.721Z,100417.81
2022-11-05T06:25:47.771Z,100415.44
2022-11-05T06:28:49.426Z,100419.59
2022-11-05T06:31:51.028Z,100429.75
2022-11-05T06:34:52.670Z,100428.50
2022-11-05T06:37:59.042Z,100438.50
2022-11-05T06:41:07.195Z,100441.81
2022-11-05T06:44:10.536Z,100449.72
2022-11-05T06:47:12.215Z,100460.53
2022-11-05T06:50:14.014Z,100459.72
2022-11-05T06:53:15.745Z,100461.38
2022-11-05T06:56:18.927Z,100465.72
2022-11-05T06:59:20.593Z,100474.56
2022-11-05T07:02:22.306Z,100484.13
2022-11-05T07:05:25.722Z,100490.31
2022-11-05T07:08:27.822Z,100491.25
2022-11-05T07:11:30.901Z,100487.50
2022-11-05T07:14:32.526Z,100490.94
2022-11-05T07:17:34.151Z,100484.56
2022-11-05T07:20:35.958Z,100491.19
2022-11-05T07:23:37.715Z,100506.13
2022-11-05T07:26:40.710Z,100513.69
2022-11-05T07:29:42.371Z,100521.84
2022-11-05T07:32:43.936Z,100529.03
2022-11-05T07:35:45.611Z,100534.44
2022-11-05T07:38:47.211Z,100531.66
2022-11-05T07:41:51.740Z,100534.13
2022-11-05T07:44:53.356Z,100535.25
2022-11-05T07:47:56.450Z,100543.84
2022-11-05T07:50:58.176Z,100548.50
2022-11-05T07:54:00.068Z,100555.16
2022-11-05T07:57:03.139Z,100556.34
2022-11-05T08:00:05.817Z,100555.41
2022-11-05T08:03:16.130Z,100566.94
2022-11-05T08:06:18.216Z,100561.44
2022-11-05T08:09:19.881Z,100572.75
2022-11-05T08:12:22.978Z,100572.91
2022-11-05T08:15:24.733Z,100569.53
2022-11-05T08:18:32.267Z,100565.59
2022-11-05T08:21:33.979Z,100581.78
2022-11-05T08:24:35.619Z,100575.44
2022-11-05T08:27:39.069Z,100576.81
2022-11-05T08:30:41.081Z,100575.63
2022-11-05T08:33:42.802Z,100588.41
2022-11-05T08:36:46.737Z,100585.63
2022-11-05T08:39:48.471Z,100592.31
2022-11-05T08:42:51.697Z,100598.59
2022-11-05T08:45:54.968Z,100601.56
2022-11-05T08:48:56.756Z,100600.00
2022-11-05T08:51:58.510Z,100601.28
2022-11-05T08:55:00.186Z,100595.56
2022-11-05T08:58:05.218Z,100593.41
2022-11-05T09:01:06.919Z,100590.63
2022-11-05T09:04:08.737Z,100600.78
2022-11-05T09:07:10.410Z,100604.56
2022-11-05T09:10:12.458Z,100602.47
2022-11-05T09:13:19.357Z,100603.88
2022-11-05T09:16:23.752Z,100602.19
2022-11-05T09:19:25.352Z,100605.88
2022-11-05T09:22:27.089Z,100613.44
2022-11-05T09:25:28.815Z,100616.13
2022-11-05T09:28:32.470Z,100620.63
2022-11-05T09:31:34.115Z,100616.63
2022-11-05T09:34:36.481Z,100621.88
2022-11-05T09:37:38.539Z,100621.22
2022-11-05T09:40:47.374Z,100617.81
2022-11-05T09:43:53.768Z,100629.66
2022-11-05T09:46:58.983Z,100631.66
2022-11-05T09:50:03.580Z,100638.72
2022-11-05T09:53:05.458Z,100646.31
2022-11-05T09:56:18.800Z,100643.91
2022-11-05T09:59:26.201Z,100646.06
2022-11-05T10:02:30.553Z,100644.41
2022-11-05T10:05:34.065Z,100640.53
2022-11-05T10:08:41.499Z,100643.78
2022-11-05T10:11:47.516Z,100643.59
2022-11-05T10:14:56.681Z,100652.25
2022-11-05T10:18:03.440Z,100654.13
2022-11-05T10:21:06.542Z,100653.81
2022-11-05T10:24:14.472Z,100656.31
2022-11-05T10:27:19.319Z,100665.53
2022-11-05T10:30:22.221Z,100662.00
2022-11-05T10:33:30.146Z,100664.03
2022-11-05T10:36:35.881Z,100668.50
2022-11-05T10:39:37.596Z,100663.84
2022-11-05T10:42:50.506Z,100668.63
2022-11-05T10:46:03.155Z,100669.22
2022-11-05T10:49:18.599Z,100674.84
2022-11-05T10:52:23.948Z,100677.88
2022-11-05T10:55:29.141Z,100670.81
2022-11-05T10:58:32.192Z,100673.31
2022-11-05T11:01:35.423Z,100675.88
2022-11-05T11:04:38.257Z,100666.88
2022-11-05T11:07:40.803Z,100664.28
2022-11-05T11:10:49.627Z,100666.66
2022-11-05T11:13:58.897Z,100663.47
2022-11-05T11:20:31.194Z,100664.97
2022-11-05T11:23:37.780Z,100668.69
2022-11-05T11:26:40.795Z,100657.69
2022-11-05T11:29:49.536Z,100662.38
2022-11-05T11:32:51.642Z,100661.38
2022-11-05T11:35:55.468Z,100657.94
2022-11-05T11:38:59.643Z,100651.34
2022-11-05T11:42:05.857Z,100648.22
2022-11-05T11:45:17.378Z,100653.28
2022-11-05T11:48:22.755Z,100653.91
2022-11-05T11:51:35.017Z,100645.28
2022-11-05T11:54:36.835Z,100644.00
2022-11-05T11:57:44.089Z,100644.63
2022-11-05T12:00:50.080Z,100652.53
2022-11-05T12:03:57.832Z,100655.78
2022-11-05T12:07:16.329Z,100646.88
2022-11-05T12:10:35.901Z,100652.03
2022-11-05T12:13:55.226Z,100648.19
2022-11-05T12:17:22.364Z,100635.88
2022-11-05T12:20:34.321Z,100650.34
2022-11-05T12:24:18.025Z,100646.44
2022-11-05T12:27:33.437Z,100647.97
2022-11-05T12:30:45.692Z,100646.31
2022-11-05T12:33:56.548Z,100643.94
2022-11-05T12:37:11.992Z,100647.97
2022-11-05T12:40:33.908Z,100641.09
2022-11-05T12:43:53.209Z,100643.00
2022-11-05T12:47:11.111Z,100643.09
2022-11-05T12:50:20.590Z,100641.97
2022-11-05T12:53:56.094Z,100642.03
2022-11-05T12:57:03.285Z,100635.84
2022-11-05T13:00:08.545Z,100640.69
2022-11-05T13:03:22.222Z,100642.06
2022-11-05T13:06:29.859Z,100644.97
2022-11-05T13:09:37.696Z,100649.00
2022-11-05T13:12:42.458Z,100659.31
2022-11-05T13:15:48.107Z,100657.94
2022-11-05T13:18:54.797Z,100653.28
2022-11-05T13:22:00.294Z,100653.28
2022-11-05T13:25:05.884Z,100652.16
2022-11-05T13:28:18.106Z,100650.88
2022-11-05T13:31:30.472Z,100653.28
2022-11-05T13:34:37.446Z,100653.34
2022-11-05T13:38:02.185Z,100648.13
2022-11-05T13:41:18.633Z,100648.34
2022-11-05T13:44:52.252Z,100653.72
2022-11-05T13:48:38.413Z,100642.47
2022-11-05T13:51:53.335Z,100640.28
2022-11-05T13:55:16.763Z,100652.16
2022-11-05T13:58:44.939Z,100647.41
2022-11-05T14:01:54.751Z,100650.16
2022-11-05T14:05:01.237Z,100654.47
2022-11-05T14:08:10.865Z,100652.56
2022-11-05T14:11:22.005Z,100655.78
2022-11-05T14:14:26.589Z,100658.66
2022-11-05T14:17:33.208Z,100663.88
2022-11-05T14:20:59.284Z,100662.72
2022-11-05T14:24:24.571Z,100666.31
2022-11-05T14:27:43.614Z,100661.84
2022-11-05T14:30:46.640Z,100666.50
2022-11-05T14:34:00.544Z,100665.50
2022-11-05T14:37:17.103Z,100668.38
2022-11-05T14:40:39.534Z,100669.66
2022-11-05T14:43:47.882Z,100673.53
2022-11-05T14:46:53.313Z,100674.59
2022-11-05T14:50:01.156Z,100671.91
2022-11-05T14:53:22.587Z,100666.38
2022-11-05T14:56:24.366Z,100666.25
2022-11-05T14:59:52.934Z,100668.00
2022-11-05T15:02:57.007Z,100665.66
2022-11-05T15:06:20.227Z,100670.38
2022-11-05T15:09:34.501Z,100672.25
2022-11-05T15:12:41.212Z,100683.38
2022-11-05T15:15:47.181Z,100684.38
2022-11-05T15:18:49.041Z,100683.63
2022-11-05T15:21:54.464Z,100700.16
2022-11-05T15:24:56.644Z,100694.31
2022-11-05T15:28:05.587Z,100692.47
2022-11-05T15:31:23.796Z,100687.81
2022-11-05T15:34:31.790Z,100685.50
2022-11-05T15:37:34.920Z,100680.09
2022-11-05T15:40:36.607Z,100685.47
2022-11-05T15:43:47.714Z,100687.59
2022-11-05T15:47:04.824Z,100689.13
2022-11-05T15:50:14.657Z,100698.38
2022-11-05T15:56:57.992Z,100710.16
2022-11-05T16:00:04.482Z,100703.72
2022-11-05T16:03:15.814Z,100709.31
2022-11-05T16:06:17.923Z,100708.31
2022-11-05T16:09:24.131Z,100712.22
2022-11-05T16:12:36.958Z,100710.94
2022-11-05T16:15:38.552Z,100711.22
2022-11-05T16:18:41.620Z,100713.00
2022-11-05T16:21:53.477Z,100706.81
2022-11-05T16:24:56.376Z,100704.44
2022-11-05T16:27:59.748Z,100709.44
2022-11-05T16:31:03.414Z,100717.88
2022-11-05T16:34:05.385Z,100717.38
2022-11-05T16:37:11.814Z,100717.88
2022-11-05T16:40:18.103Z,100725.59
2022-11-05T16:43:23.344Z,100728.03
2022-11-05T16:46:28.525Z,100722.53
2022-11-05T16:49:30.182Z,100708.38
2022-11-05T16:52:31.765Z,100714.34
2022-11-05T16:55:37.557Z,100725.06
2022-11-05T16:58:39.212Z,100730.50
2022-11-05T17:01:42.336Z,100734.53
2022-11-05T17:04:44.331Z,100752.16
2022-11-05T17:07:46.295Z,100756.94
2022-11-05T17:10:49.463Z,100765.63
2022-11-05T17:13:51.128Z,100764.78
2022-11-05T17:16:52.834Z,100767.97
2022-11-05T17:19:54.874Z,100778.88
2022-11-05T17:22:57.753Z,100784.41
2022-11-05T17:26:02.938Z,100793.13
2022-11-05T17:29:04.831Z,100797.00
2022-11-05T17:32:07.053Z,100798.88
2022-11-05T17:35:09.370Z,100815.44
2022-11-05T17:38:12.541Z,100813.06
2022-11-05T17:41:18.245Z,100810.38
2022-11-05T17:44:19.869Z,100807.53
2022-11-05T17:47:21.625Z,100809.72
2022-11-05T17:50:23.319Z,100799.75
2022-11-05T17:53:24.990Z,100784.66
2022-11-05T17:56:34.395Z,100782.59
2022-11-05T17:59:37.225Z,100783.06
2022-11-05T18:02:39.067Z,100793.88
2022-11-05T18:05:41.610Z,100797.03
2022-11-05T18:08:43.887Z,100791.06
2022-11-05T18:11:46.995Z,100800.03
2022-11-05T18:14:48.734Z,100810.72
2022-11-05T18:17:50.429Z,100807.19
2022-11-05T18:20:52.109Z,100799.22
2022-11-05T18:23:53.829Z,100812.13
2022-11-05T18:26:56.834Z,100819.91
2022-11-05T18:29:58.593Z,100817.59
2022-11-05T18:33:00.361Z,100818.28
2022-11-05T18:36:02.018Z,100817.22
2022-11-05T18:39:05.305Z,100806.19
2022-11-05T18:42:08.711Z,100810.06
2022-11-05T18:45:11.457Z,100807.59
2022-11-05T18:48:13.396Z,100794.31
2022-11-05T18:51:15.721Z,100806.25
2022-11-05T18:54:17.435Z,100803.69
2022-11-05T18:57:20.525Z,100808.13
2022-11-05T19:00:22.274Z,100802.72
2022-11-05T19:03:23.973Z,100799.53
2022-11-05T19:06:26.088Z,100799.38
2022-11-05T19:09:27.767Z,100809.03
2022-11-05T19:12:31.372Z,100812.53
2022-11-05T19:15:33.055Z,100816.53
2022-11-05T19:18:34.935Z,100810.97
2022-11-05T19:21:36.685Z,100807.31
2022-11-05T19:24:38.398Z,100815.28
2022-11-05T19:27:42.559Z,100818.06
2022-11-05T19:30:44.936Z,100810.97
2022-11-05T19:33:48.384Z,100802.97
2022-11-05T19:36:50.079Z,100813.06
2022-11-05T19:39:52.043Z,100805.41
2022-11-05T19:42:55.104Z,100795.03
2022-11-05T19:45:56.881Z,100806.38
2022-11-05T19:49:00.038Z,100794.94
2022-11-05T19:52:01.700Z,100799.22
2022-11-05T19:55:06.721Z,100796.56
2022-11-05T19:58:14.520Z,100797.91
2022-11-05T20:01:18.229Z,100803.81
2022-11-05T20:04:19.995Z,100805.56
2022-11-05T20:07:21.674Z,100791.03
2022-11-05T20:10:23.322Z,100795.78
2022-11-05T20:13:27.340Z,100803.00
2022-11-05T20:16:36.812Z,100801.72
2022-11-05T20:19:39.013Z,100799.56
2022-11-05T20:22:40.683Z,100798.78
2022-11-05T20:25:42.620Z,100807.63
2022-11-05T20:28:45.742Z,100799.19
2022-11-05T20:31:48.016Z,100798.88
2022-11-05T20:34:49.834Z,100808.06
2022-11-05T20:37:54.128Z,100798.72
2022-11-05T20:40:56.650Z,100804.34
2022-11-05T20:43:59.836Z,100801.44
2022-11-05T20:47:01.673Z,100796.97
2022-11-05T20:50:04.413Z,100802.38
2022-11-05T20:53:06.160Z,100797.91
2022-11-05T20:56:09.330Z,100809.69
2022-11-05T20:59:12.382Z,100805.03
2022-11-05T21:02:14.635Z,100807.66
2022-11-05T21:05:16.368Z,100801.25
2022-11-05T21:08:20.047Z,100803.13
2022-11-05T21:11:22.008Z,100807.88
2022-11-05T21:14:24.968Z,100807.47
2022-11-05T21:17:26.682Z,100813.69
2022-11-05T21:20:28.597Z,100803.00
2022-11-05T21:23:30.298Z,100802.88
2022-11-05T21:26:33.526Z,100801.19
2022-11-05T21:29:37.139Z,100811.78
2022-11-05T21:32:38.816Z,100803.44
2022-11-05T21:35:41.182Z,100799.03
2022-11-05T21:38:42.987Z,100794.06
2022-11-05T21:41:44.685Z,100787.50
2022-11-05T21:44:47.797Z,100787.31
2022-11-05T21:47:49.490Z,100790.56
2022-11-05T21:51:10.215Z,100788.25
2022-11-05T21:54:30.589Z,100788.66
2022-11-05T21:57:52.922Z,100788.47
2022-11-05T22:00:55.945Z,100794.88
2022-11-05T22:04:02.655Z,100796.50
2022-11-05T22:07:05.771Z,100786.56
2022-11-05T22:10:14.840Z,100788.66
2022-11-05T22:13:17.573Z,100790.94
2022-11-05T22:16:20.713Z,100790.41
2022-11-05T22:19:23.507Z,100801.91
2022-11-05T22:22:25.227Z,100787.28
2022-11-05T22:25:26.878Z,100791.91
2022-11-05T22:28:28.484Z,100786.94
2022-11-05T22:31:36.021Z,100790.94
2022-11-05T22:34:38.526Z,100794.06
2022-11-05T22:37:40.163Z,100793.75
2022-11-05T22:40:41.801Z,100790.53
2022-11-05T22:43:43.406Z,100796.91
2022-11-05T22:46:46.435Z,100793.56
2022-11-05T22:49:49.304Z,100792.31
2022-11-05T22:52:50.951Z,100789.72
2022-11-05T22:55:52.598Z,100795.94
2022-11-05T22:58:54.860Z,100796.38
2022-11-05T23:01:57.920Z,100796.91
2022-11-05T23:04:59.658Z,100799.63
2022-11-05T23:08:20.146Z,100801.19
2022-11-05T23:11:35.856Z,100791.66
2022-11-05T23:14:37.482Z,100787.34
2022-11-05T23:17:59.442Z,100782.81
2022-11-05T23:21:23.061Z,100785.59
2022-11-05T23:24:24.947Z,100781.44
2022-11-05T23:27:28.869Z,100780.84
2022-11-05T23:30:30.483Z,100777.53
2022-11-05T23:33:34.849Z,100780.69
2022-11-05T23:36:55.267Z,100778.91
2022-11-05T23:39:56.924Z,100773.34
2022-11-05T23:43:17.505Z,100765.31
2022-11-05T23:46:37.701Z,100764.03
2022-11-05T23:49:40.645Z,100759.09
2022-11-05T23:52:42.313Z,100758.44
2022-11-05T23:55:44.035Z,100769.81
2022-11-05T23:58:45.813Z,100769.63
